Time;durP1;ratioP1;P1;durP2;ratioP2;P2;SDS_P1;SDS_P2;PMS_P1;PMS_P2;Temp;Humidity;BMP_temperature;BMP_pressure;BME280_temperature;BME280_humidity;BME280_pressure;Samples;Min_cycle;Max_cycle;Signal;HPM_P1;HPM_P2
2022/12/05 00:00:15;;;;;;;1999.90;999.90;;;;;;;2.46;100.00;94448.94;5136886;27;20195;-64
2022/12/05 00:02:41;;;;;;;1999.90;999.90;;;;;;;2.51;100.00;94445.09;5136155;27;20212;-63
2022/12/05 00:05:06;;;;;;;1999.90;999.90;;;;;;;2.55;100.00;94435.91;5136203;27;20195;-64
2022/12/05 00:07:32;;;;;;;1999.90;999.90;;;;;;;2.53;100.00;94448.22;5137114;27;20265;-63
2022/12/05 00:09:57;;;;;;;1999.90;999.90;;;;;;;2.53;100.00;94438.22;5136220;27;20266;-62
2022/12/05 00:12:22;;;;;;;1999.90;999.90;;;;;;;2.54;100.00;94445.13;5136617;27;20254;-62
2022/12/05 00:14:48;;;;;;;1999.90;999.90;;;;;;;2.55;100.00;94449.38;5136290;27;20178;-63
2022/12/05 00:17:13;;;;;;;1999.90;999.90;;;;;;;2.53;100.00;94449.00;5136027;27;20171;-62
2022/12/05 00:19:39;;;;;;;1999.90;999.90;;;;;;;2.53;100.00;94451.69;5136113;27;20172;-62
2022/12/05 00:22:04;;;;;;;1999.90;999.90;;;;;;;2.53;100.00;94442.81;5135686;27;20660;-62
2022/12/05 00:24:30;;;;;;;1999.90;999.90;;;;;;;2.52;100.00;94452.81;5136500;27;20171;-62
2022/12/05 00:26:55;;;;;;;1999.90;999.90;;;;;;;2.51;100.00;94456.66;5136505;27;20176;-62
2022/12/05 00:29:20;;;;;;;1999.90;999.90;;;;;;;2.50;100.00;94457.03;5135670;27;20179;-61
2022/12/05 00:31:46;;;;;;;1999.90;999.90;;;;;;;2.49;100.00;94458.97;5135616;27;20172;-61
2022/12/05 00:34:12;;;;;;;1999.90;999.90;;;;;;;2.56;100.00;94442.84;5135640;27;20234;-62
2022/12/05 00:36:37;;;;;;;1999.90;999.90;;;;;;;2.61;100.00;94431.72;5135909;27;20209;-62
2022/12/05 00:39:06;;;;;;;1999.90;999.90;;;;;;;2.66;100.00;94434.03;5135653;27;20172;-62
2022/12/05 00:41:34;;;;;;;1999.90;999.90;;;;;;;2.67;100.00;94437.53;5135049;27;20234;-61
2022/12/05 00:44:01;;;;;;;1999.90;999.90;;;;;;;2.54;100.00;94437.06;5135487;27;20223;-62
2022/12/05 00:46:29;;;;;;;1999.90;999.90;;;;;;;2.59;100.00;94434.00;5135956;27;20177;-61
2022/12/05 00:48:56;;;;;;;1999.90;999.90;;;;;;;2.64;100.00;94435.56;5135417;27;20283;-62
2022/12/05 00:51:28;;;;;;;1999.90;999.90;;;;;;;2.65;100.00;94440.59;5135459;27;20179;-63
2022/12/05 00:53:54;;;;;;;1999.90;999.90;;;;;;;2.61;100.00;94437.09;5135419;27;20164;-61
2022/12/05 00:56:22;;;;;;;1999.90;999.90;;;;;;;2.57;100.00;94444.41;5135566;27;20175;-61
2022/12/05 00:58:49;;;;;;;1999.90;999.90;;;;;;;2.54;100.00;94449.75;5135667;27;20175;-62
2022/12/05 01:01:27;;;;;;;1999.90;999.90;;;;;;;2.49;100.00;94442.81;5135718;27;20225;-61
2022/12/05 01:03:54;;;;;;;1999.90;999.90;;;;;;;2.50;100.00;94444.34;5134651;27;20196;-61
2022/12/05 01:06:21;;;;;;;1999.90;999.90;;;;;;;2.54;100.00;94433.56;5135836;27;20182;-61
2022/12/05 01:08:46;;;;;;;1999.90;999.90;;;;;;;2.60;100.00;94430.19;5134681;27;20202;-61
2022/12/05 01:11:15;;;;;;;1999.90;999.90;;;;;;;2.60;100.00;94427.47;5135149;27;20260;-61
2022/12/05 01:13:41;;;;;;;1999.90;999.90;;;;;;;2.48;100.00;94441.25;5134886;27;20284;-62
2022/12/05 01:16:13;;;;;;;1999.90;999.90;;;;;;;2.49;100.00;94439.31;5135428;27;20257;-61
2022/12/05 01:18:39;;;;;;;1999.90;999.90;;;;;;;2.50;100.00;94457.81;5135347;27;20182;-61
2022/12/05 01:21:05;;;;;;;1999.90;999.90;;;;;;;2.52;100.00;94463.59;5135051;27;20201;-61
2022/12/05 01:23:30;;;;;;;1999.90;999.90;;;;;;;2.46;100.00;94457.03;5135286;27;20202;-61
2022/12/05 01:25:56;;;;;;;1999.90;999.90;;;;;;;2.51;100.00;94458.56;5134694;27;20175;-60
2022/12/05 01:28:21;;;;;;;1999.90;999.90;;;;;;;2.56;100.00;94453.63;5135232;27;20262;-61
2022/12/05 01:30:48;;;;;;;1999.90;999.90;;;;;;;2.59;100.00;94462.88;5134395;27;20179;-61
2022/12/05 01:33:14;;;;;;;1999.90;999.90;;;;;;;2.63;100.00;94442.88;5134810;27;20175;-63
2022/12/05 01:35:40;;;;;;;1999.90;999.90;;;;;;;2.63;100.00;94426.72;5134651;27;20206;-63
2022/12/05 01:38:06;;;;;;;1999.90;999.90;;;;;;;2.69;100.00;94425.22;5134575;27;20266;-63
2022/12/05 01:40:34;;;;;;;1999.90;999.90;;;;;;;2.72;100.00;94429.84;5134284;27;20226;-63
2022/12/05 01:43:00;;;;;;;1999.90;999.90;;;;;;;2.78;100.00;94420.28;5134217;27;20171;-64
2022/12/05 01:45:35;;;;;;;1999.90;999.90;;;;;;;2.78;100.00;94422.19;5135163;27;20167;-63
2022/12/05 01:48:04;;;;;;;1999.90;999.90;;;;;;;2.79;100.00;94429.91;5134357;27;20261;-63
2022/12/05 01:50:30;;;;;;;1999.90;999.90;;;;;;;2.83;100.00;94446.84;5135047;27;20252;-62
2022/12/05 01:52:57;;;;;;;1999.90;999.90;;;;;;;2.82;100.00;94448.00;5134566;27;20329;-62
2022/12/05 01:55:22;;;;;;;1999.90;999.90;;;;;;;2.76;100.00;94467.59;5134532;27;20172;-61
2022/12/05 01:57:48;;;;;;;1999.90;999.90;;;;;;;2.67;100.00;94470.63;5134437;27;20175;-62
2022/12/05 02:00:17;;;;;;;1999.90;999.90;;;;;;;2.73;100.00;94463.72;5134539;28;20226;-61
2022/12/05 02:02:57;;;;;;;1999.90;999.90;;;;;;;2.75;100.00;94461.44;5134066;27;20266;-61
2022/12/05 02:05:27;;;;;;;1999.90;999.90;;;;;;;2.77;100.00;94464.53;5134358;27;20194;-61
2022/12/05 02:07:52;;;;;;;1999.90;999.90;;;;;;;2.79;100.00;94462.22;5134050;28;20185;-61
2022/12/05 02:10:18;;;;;;;1999.90;999.90;;;;;;;2.83;100.00;94465.72;5134302;28;20179;-63
2022/12/05 02:12:44;;;;;;;1999.90;999.90;;;;;;;2.83;100.00;94487.28;5134279;28;20262;-63
2022/12/05 02:15:28;;;;;;;1999.90;999.90;;;;;;;2.83;100.00;94500.75;5134681;28;20198;-63
2022/12/05 02:18:29;;;;;;;1999.90;999.90;;;;;;;2.80;100.00;94514.97;5133943;28;20199;-63
2022/12/05 02:21:34;;;;;;;1999.90;999.90;;;;;;;2.84;100.00;94510.38;5134284;27;20198;-63
2022/12/05 02:24:24;;;;;;;1999.90;999.90;;;;;;;2.82;100.00;94507.31;5125388;27;20187;-63
2022/12/05 02:27:25;;;;;;;1999.90;999.90;;;;;;;2.84;100.00;94499.59;5139008;27;20166;-63
2022/12/05 02:30:04;;;;;;;1999.90;999.90;;;;;;;2.88;100.00;94499.66;5138994;27;20178;-61
2022/12/05 02:32:45;;;;;;;1999.90;999.90;;;;;;;2.87;100.00;94498.84;5138041;27;20171;-61
2022/12/05 02:35:49;;;;;;;1999.90;999.90;;;;;;;2.88;100.00;94507.72;5138682;27;20167;-60
2022/12/05 02:38:27;;;;;;;1999.90;999.90;;;;;;;2.85;100.00;94514.63;5139131;27;20320;-61
2022/12/05 02:41:14;;;;;;;1999.90;999.90;;;;;;;2.86;100.00;94518.88;5137686;27;20258;-61
2022/12/05 02:44:00;;;;;;;1999.90;999.90;;;;;;;2.79;100.00;94532.31;5138082;27;20198;-61
2022/12/05 02:46:29;;;;;;;1999.90;999.90;;;;;;;2.79;100.00;94526.91;5138456;27;20175;-62
2022/12/05 02:49:01;;;;;;;1999.90;999.90;;;;;;;2.76;100.00;94521.50;5138150;27;20171;-60
2022/12/05 02:51:32;;;;;;;1999.90;999.90;;;;;;;2.76;100.00;94524.97;5137948;27;20216;-70
2022/12/05 02:54:02;;;;;;;1999.90;999.90;;;;;;;2.83;100.00;94527.72;5138407;27;20167;-70
2022/12/05 02:56:30;;;;;;;1999.90;999.90;;;;;;;2.83;100.00;94524.25;5138169;27;20199;-70
2022/12/05 02:58:55;;;;;;;1999.90;999.90;;;;;;;2.80;100.00;94531.16;5138121;27;20521;-71
2022/12/05 03:01:24;;;;;;;1999.90;999.90;;;;;;;2.75;100.00;94534.22;5137249;27;20195;-70
2022/12/05 03:03:49;;;;;;;1999.90;999.90;;;;;;;2.70;100.00;94529.16;5137163;27;20191;-71
2022/12/05 03:06:21;;;;;;;1999.90;999.90;;;;;;;2.71;100.00;94532.63;5137709;27;20164;-60
2022/12/05 03:09:12;;;;;;;1999.90;999.90;;;;;;;2.61;100.00;94536.78;5137971;27;20170;-61
2022/12/05 03:11:46;;;;;;;1999.90;999.90;;;;;;;2.67;100.00;94543.41;5137926;27;20181;-61
2022/12/05 03:14:16;;;;;;;1999.90;999.90;;;;;;;2.67;100.00;94548.00;5138532;27;20170;-61
2022/12/05 03:16:47;;;;;;;1999.90;999.90;;;;;;;2.68;100.00;94563.81;5136945;27;20196;-61
2022/12/05 03:19:19;;;;;;;1999.90;999.90;;;;;;;2.59;100.00;94570.66;5137113;27;20155;-61
2022/12/05 03:21:54;;;;;;;1999.90;999.90;;;;;;;2.58;100.00;94564.47;5137606;27;20199;-61
2022/12/05 03:24:20;;;;;;;1999.90;999.90;;;;;;;2.52;100.00;94581.38;5137950;27;20159;-61
2022/12/05 03:27:18;;;;;;;1999.90;999.90;;;;;;;2.52;100.00;94581.38;5137051;27;20200;-71
2022/12/05 03:29:55;;;;;;;1999.90;999.90;;;;;;;2.48;100.00;94575.94;5137482;27;20159;-69
2022/12/05 03:32:29;;;;;;;1999.90;999.90;;;;;;;2.51;100.00;94569.81;5137512;27;20167;-71
2022/12/05 03:35:00;;;;;;;1999.90;999.90;;;;;;;2.54;100.00;94573.66;5137229;27;20156;-71
2022/12/05 03:37:58;;;;;;;1999.90;999.90;;;;;;;2.52;100.00;94579.44;5137961;27;20189;-72
2022/12/05 03:40:30;;;;;;;1999.90;999.90;;;;;;;2.54;100.00;94573.66;5137133;27;20314;-71
2022/12/05 03:43:17;;;;;;;1999.90;999.90;;;;;;;2.52;100.00;94584.81;5136776;27;20190;-67
2022/12/05 03:45:59;;;;;;;1999.90;999.90;;;;;;;2.56;100.00;94582.16;5136423;27;20258;-62
2022/12/05 03:48:34;;;;;;;1999.90;999.90;;;;;;;2.50;100.00;94579.03;5137091;27;20180;-61
2022/12/05 03:51:02;;;;;;;1999.90;999.90;;;;;;;2.54;100.00;94590.63;5137129;27;20166;-61
2022/12/05 03:53:50;;;;;;;1999.90;999.90;;;;;;;2.55;100.00;94589.47;5136896;27;20179;-61
2022/12/05 03:56:20;;;;;;;1999.90;999.90;;;;;;;2.53;100.00;94586.38;5137662;27;20187;-62
2022/12/05 03:58:56;;;;;;;1999.90;999.90;;;;;;;2.55;100.00;94592.16;5136244;27;20643;-61
2022/12/05 04:01:25;;;;;;;1999.90;999.90;;;;;;;2.62;100.00;94581.44;5136738;27;20227;-61
2022/12/05 04:03:56;;;;;;;1999.90;999.90;;;;;;;2.65;100.00;94574.53;5135957;27;20187;-61
2022/12/05 04:06:33;;;;;;;1999.90;999.90;;;;;;;2.73;100.00;94573.47;5136526;27;20160;-61
2022/12/05 04:09:04;;;;;;;1999.90;999.90;;;;;;;2.71;100.00;94576.53;5136043;27;20163;-61
2022/12/05 04:11:34;;;;;;;1999.90;999.90;;;;;;;2.74;100.00;94578.47;5136160;27;20292;-61
2022/12/05 04:14:07;;;;;;;1999.90;999.90;;;;;;;2.75;100.00;94590.81;5136211;27;20179;-61
2022/12/05 04:17:03;;;;;;;1999.90;999.90;;;;;;;2.74;100.00;94601.97;5136533;27;20163;-60
2022/12/05 04:22:37;;;;;;;1999.90;999.90;;;;;;;2.71;100.00;94608.88;5137169;27;20178;-60
2022/12/05 04:27:54;;;;;;;1999.90;999.90;;;;;;;2.67;100.00;94605.38;5137293;27;20166;-61
2022/12/05 04:30:23;;;;;;;1999.90;999.90;;;;;;;2.75;100.00;94601.59;5135704;27;20175;-61
2022/12/05 04:33:09;;;;;;;1999.90;999.90;;;;;;;2.74;100.00;94612.75;5136268;27;20175;-61
2022/12/05 04:35:40;;;;;;;1999.90;999.90;;;;;;;2.74;100.00;94616.19;5136218;27;20163;-61
2022/12/05 04:38:16;;;;;;;1999.90;999.90;;;;;;;2.79;100.00;94610.47;5136366;27;20168;-61
2022/12/05 04:40:55;;;;;;;1999.90;999.90;;;;;;;2.83;100.00;94613.19;5135124;27;20222;-61
2022/12/05 04:43:23;;;;;;;1999.90;999.90;;;;;;;2.83;100.00;94619.38;5135709;27;20171;-60
2022/12/05 04:45:51;;;;;;;1999.90;999.90;;;;;;;2.88;100.00;94615.56;5135518;27;20178;-61
2022/12/05 04:48:18;;;;;;;1999.90;999.90;;;;;;;2.87;100.00;94625.56;5135668;27;20171;-60
2022/12/05 04:50:46;;;;;;;1999.90;999.90;;;;;;;2.75;100.00;94631.22;5135348;27;20167;-62
2022/12/05 04:53:14;;;;;;;1999.90;999.90;;;;;;;2.76;100.00;94624.69;5135421;27;20167;-62
2022/12/05 04:55:46;;;;;;;1999.90;999.90;;;;;;;2.84;100.00;94610.13;5135097;27;20167;-61
2022/12/05 04:58:24;;;;;;;1999.90;999.90;;;;;;;2.91;100.00;94604.78;5135102;27;20159;-60
2022/12/05 05:00:58;;;;;;;1999.90;999.90;;;;;;;2.92;100.00;94595.53;5135343;27;20339;-61
2022/12/05 05:03:38;;;;;;;1999.90;999.90;;;;;;;2.99;100.00;94608.31;5134970;27;20166;-61
2022/12/05 05:06:04;;;;;;;1999.90;999.90;;;;;;;3.03;100.00;94607.19;5135181;27;20178;-61
2022/12/05 05:08:29;;;;;;;1999.90;999.90;;;;;;;3.02;100.00;94621.03;5135197;27;20167;-60
2022/12/05 05:11:15;;;;;;;1999.90;999.90;;;;;;;3.00;100.00;94624.13;5134679;27;20235;-61
2022/12/05 05:13:40;;;;;;;1999.90;999.90;;;;;;;3.07;100.00;94626.09;5135384;27;20178;-62
2022/12/05 05:16:06;;;;;;;1999.90;999.90;;;;;;;3.08;100.00;94633.81;5134960;27;20171;-63
2022/12/05 05:18:32;;;;;;;1999.90;999.90;;;;;;;3.12;100.00;94641.91;5135048;27;20163;-62
2022/12/05 05:20:58;;;;;;;1999.90;999.90;;;;;;;3.14;100.00;94653.13;5134809;27;20259;-62
2022/12/05 05:23:24;;;;;;;1999.90;999.90;;;;;;;3.12;100.00;94666.97;5135693;27;20201;-63
2022/12/05 05:25:53;;;;;;;1999.90;999.90;;;;;;;3.13;100.00;94671.22;5135897;27;20163;-62
2022/12/05 05:28:20;;;;;;;1999.90;999.90;;;;;;;3.06;100.00;94671.16;5135278;27;20175;-63
2022/12/05 05:30:45;;;;;;;1999.90;999.90;;;;;;;3.08;100.00;94671.56;5134371;27;20163;-63
2022/12/05 05:33:10;;;;;;;1999.90;999.90;;;;;;;3.11;100.00;94680.81;5134970;27;20174;-70
2022/12/05 05:35:36;;;;;;;1999.90;999.90;;;;;;;3.12;100.00;94672.38;5134747;27;20167;-61
2022/12/05 05:38:02;;;;;;;1999.90;999.90;;;;;;;3.11;100.00;94683.53;5134582;27;20182;-62
2022/12/05 05:40:27;;;;;;;1999.90;999.90;;;;;;;3.10;100.00;94676.59;5134052;27;20223;-61
2022/12/05 05:42:52;;;;;;;1999.90;999.90;;;;;;;3.12;100.00;94672.38;5134892;27;20178;-61
2022/12/05 05:45:18;;;;;;;1999.90;999.90;;;;;;;3.13;100.00;94670.44;5117372;28;20175;-61
2022/12/05 05:47:44;;;;;;;1999.90;999.90;;;;;;;3.18;100.00;94670.09;5134527;27;20171;-61
2022/12/05 05:50:10;;;;;;;1999.90;999.90;;;;;;;3.20;100.00;94668.56;5134317;27;20547;-61
2022/12/05 05:52:36;;;;;;;1999.90;999.90;;;;;;;3.22;100.00;94666.28;5134619;28;20267;-62
2022/12/05 05:55:03;;;;;;;1999.90;999.90;;;;;;;3.22;100.00;94674.38;5134889;28;20175;-73
2022/12/05 05:57:30;;;;;;;1999.90;999.90;;;;;;;3.24;100.00;94666.69;5136796;27;20171;-74
2022/12/05 05:59:55;;;;;;;1999.90;999.90;;;;;;;3.25;100.00;94684.41;5139428;27;20255;-73
2022/12/05 06:02:21;;;;;;;1999.90;999.90;;;;;;;3.27;100.00;94692.91;5139161;27;20297;-69
2022/12/05 06:04:46;;;;;;;1999.90;999.90;;;;;;;3.20;100.00;94689.38;5138247;27;20187;-67
2022/12/05 06:07:12;;;;;;;1999.90;999.90;;;;;;;3.20;100.00;94692.84;5138578;27;20175;-67
2022/12/05 06:09:37;;;;;;;1999.90;999.90;;;;;;;3.16;100.00;94691.25;5139081;27;20248;-61
2022/12/05 06:12:02;;;;;;;1999.90;999.90;;;;;;;3.16;100.00;94693.97;5138802;27;20259;-60
2022/12/05 06:14:28;;;;;;;1999.90;999.90;;;;;;;3.19;100.00;94707.50;5139253;27;20175;-60
2022/12/05 06:16:53;;;;;;;1999.90;999.90;;;;;;;3.19;100.00;94707.50;5138337;27;20171;-61
2022/12/05 06:19:19;;;;;;;1999.90;999.90;;;;;;;3.23;100.00;94702.09;5138584;27;20295;-60
2022/12/05 06:21:44;;;;;;;1999.90;999.90;;;;;;;3.18;100.00;94700.53;5138075;27;20213;-61
2022/12/05 06:24:10;;;;;;;1999.90;999.90;;;;;;;3.16;100.00;94702.03;5138073;27;20169;-60
2022/12/05 06:26:35;;;;;;;1999.90;999.90;;;;;;;3.15;100.00;94701.28;5138270;27;20159;-60
2022/12/05 06:29:00;;;;;;;1999.90;999.90;;;;;;;3.17;100.00;94696.28;5137903;27;20581;-66
2022/12/05 06:31:29;;;;;;;1999.90;999.90;;;;;;;3.21;100.00;94683.59;5138779;27;20255;-60
2022/12/05 06:33:58;;;;;;;1999.90;999.90;;;;;;;3.25;100.00;94679.00;5138482;27;20168;-61
2022/12/05 06:36:23;;;;;;;1999.90;999.90;;;;;;;3.24;100.00;94673.97;5137786;27;20258;-61
2022/12/05 06:38:49;;;;;;;1999.90;999.90;;;;;;;3.27;100.00;94676.72;5138159;27;20263;-61
2022/12/05 06:41:17;;;;;;;1999.90;999.90;;;;;;;3.28;100.00;94683.66;5137573;27;20226;-60
2022/12/05 06:43:42;;;;;;;1999.90;999.90;;;;;;;3.29;100.00;94685.19;5137645;27;20171;-61
2022/12/05 06:46:10;;;;;;;1999.90;999.90;;;;;;;3.26;100.00;94691.38;5138313;27;20216;-62
2022/12/05 06:48:36;;;;;;;1999.90;999.90;;;;;;;3.27;100.00;94703.69;5138126;27;20174;-63
2022/12/05 06:51:01;;;;;;;1999.90;999.90;;;;;;;3.25;100.00;94705.22;5137676;27;20175;-62
2022/12/05 06:53:27;;;;;;;1999.90;999.90;;;;;;;3.27;100.00;94703.69;5137554;27;20171;-62
2022/12/05 06:56:01;;;;;;;1999.90;999.90;;;;;;;3.30;100.00;94702.94;5137453;27;20178;-62
2022/12/05 06:58:27;;;;;;;1999.90;999.90;;;;;;;3.34;100.00;94703.75;5137337;27;20168;-62
2022/12/05 07:03:37;;;;;;;1999.90;999.90;;;;;;;3.41;100.00;94701.09;5138670;27;20174;-63
2022/12/05 07:06:04;;;;;;;1999.90;999.90;;;;;;;3.46;100.00;94699.97;5137434;27;20163;-60
2022/12/05 07:08:30;;;;;;;1999.90;999.90;;;;;;;3.48;100.00;94709.25;5137175;27;20190;-60
2022/12/05 07:10:56;;;;;;;1999.90;999.90;;;;;;;3.53;100.00;94717.00;5137296;27;20195;-62
2022/12/05 07:13:22;;;;;;;1999.90;999.90;;;;;;;3.53;100.00;94722.41;5137861;27;20167;-61
2022/12/05 07:15:49;;;;;;;1999.90;999.90;;;;;;;3.57;100.00;94711.59;5137156;27;20186;-61
2022/12/05 07:18:15;;;;;;;1999.90;999.90;;;;;;;3.58;100.00;94724.72;5137331;27;20248;-63
2022/12/05 07:20:40;;;;;;;1999.90;999.90;;;;;;;3.63;100.00;94720.91;5137440;27;20226;-61
2022/12/05 07:23:06;;;;;;;1999.90;999.90;;;;;;;3.69;100.00;94729.44;5138129;27;20247;-63
2022/12/05 07:25:31;;;;;;;1999.90;999.90;;;;;;;3.74;100.00;94727.16;5137004;27;20170;-67
2022/12/05 07:27:56;;;;;;;1999.90;999.90;;;;;;;3.79;100.00;94750.34;5137070;27;20182;-68
2022/12/05 07:30:22;;;;;;;1999.90;999.90;;;;;;;3.83;100.00;94745.75;5137359;27;20175;-68
2022/12/05 07:32:47;;;;;;;1999.90;999.90;;;;;;;3.85;100.00;94756.94;5136935;27;20206;-68
2022/12/05 07:35:13;;;;;;;1999.90;999.90;;;;;;;3.84;100.00;94768.88;5136670;27;20183;-67
2022/12/05 07:37:38;;;;;;;1999.90;999.90;;;;;;;3.81;100.00;94796.63;5137420;27;20171;-68
2022/12/05 07:40:04;;;;;;;1999.90;999.90;;;;;;;3.80;100.00;94803.19;5136199;27;20250;-67
2022/12/05 07:42:29;;;;;;;1999.90;999.90;;;;;;;3.79;100.00;94821.28;5136715;27;20199;-61
2022/12/05 07:44:55;;;;;;;1999.90;999.90;;;;;;;3.81;100.00;94837.13;5136599;27;20171;-61
2022/12/05 07:47:20;;;;;;;1999.90;999.90;;;;;;;3.85;100.00;94851.44;5136718;27;20208;-60
2022/12/05 07:49:45;;;;;;;1999.90;999.90;;;;;;;3.82;100.00;94857.59;5137389;27;20171;-60
2022/12/05 07:52:11;;;;;;;1999.90;999.90;;;;;;;3.76;100.00;94865.25;5137198;27;20179;-61
2022/12/05 07:54:36;;;;;;;1999.90;999.90;;;;;;;3.71;100.00;94862.13;5136413;27;20183;-60
2022/12/05 07:57:02;;;;;;;1999.90;999.90;;;;;;;3.69;100.00;94865.19;5136965;27;20214;-60
2022/12/05 07:59:27;;;;;;;1999.90;999.90;;;;;;;3.78;100.00;94862.19;5136427;27;20167;-61
2022/12/05 08:01:52;;;;;;;1999.90;999.90;;;;;;;3.83;100.00;94868.03;5135917;27;20263;-60
2022/12/05 08:04:17;;;;;;;1999.90;999.90;;;;;;;3.91;100.00;94871.53;5136338;27;20255;-60
2022/12/05 08:06:43;;;;;;;1999.90;999.90;;;;;;;3.92;100.00;94863.06;5135903;27;20164;-60
2022/12/05 08:09:08;;;;;;;1999.90;999.90;;;;;;;3.89;100.00;94876.56;5136546;27;20202;-60
2022/12/05 08:11:34;;;;;;;1999.90;999.90;;;;;;;3.87;100.00;94886.94;5136016;27;20266;-60
2022/12/05 08:14:01;;;;;;;1999.90;999.90;;;;;;;3.87;100.00;94897.75;5136212;27;20236;-59
2022/12/05 08:16:28;;;;;;;1999.90;999.90;;;;;;;3.91;100.00;94899.34;5136098;27;20167;-59
2022/12/05 08:19:03;;;;;;;1999.90;999.90;;;;;;;3.86;100.00;94904.31;5136756;27;20167;-62
2022/12/05 08:21:29;;;;;;;1999.90;999.90;;;;;;;3.80;100.00;94921.97;5135829;27;20190;-67
2022/12/05 08:23:55;;;;;;;1999.90;999.90;;;;;;;3.84;100.00;94923.56;5136292;27;20179;-68
2022/12/05 08:26:23;;;;;;;1999.90;999.90;;;;;;;3.89;100.00;94925.16;5135737;27;20167;-67
2022/12/05 08:28:58;;;;;;;1999.90;999.90;;;;;;;3.90;100.00;94934.81;5135833;27;20167;-67
2022/12/05 08:31:25;;;;;;;1999.90;999.90;;;;;;;3.94;100.00;94949.13;5135543;27;20158;-68
2022/12/05 08:33:51;;;;;;;1999.90;999.90;;;;;;;3.98;100.00;94952.63;5135377;27;20292;-69
2022/12/05 08:36:18;;;;;;;1999.90;999.90;;;;;;;3.91;100.00;94960.66;5135343;27;20167;-62
2022/12/05 08:38:44;;;;;;;1999.90;999.90;;;;;;;3.83;100.00;94956.34;5135752;27;20171;-61
2022/12/05 08:41:12;;;;;;;1999.90;999.90;;;;;;;3.89;100.00;94965.66;5135503;27;20229;-61
2022/12/05 08:43:38;;;;;;;1999.90;999.90;;;;;;;3.91;100.00;94956.03;5135560;27;20175;-62
2022/12/05 08:46:04;;;;;;;1999.90;999.90;;;;;;;3.89;100.00;94949.47;5135196;27;20171;-62
2022/12/05 08:48:31;;;;;;;1999.90;999.90;;;;;;;3.81;100.00;94956.72;5136051;27;20186;-61
2022/12/05 08:50:57;;;;;;;1999.90;999.90;;;;;;;3.83;100.00;94953.63;5135313;27;20293;-63
2022/12/05 08:53:23;;;;;;;1999.90;999.90;;;;;;;3.80;100.00;94946.28;5135421;27;20175;-62
2022/12/05 08:55:48;;;;;;;1999.90;999.90;;;;;;;3.83;100.00;94953.63;5135390;27;20175;-60
2022/12/05 08:58:13;;;;;;;1999.90;999.90;;;;;;;3.83;100.00;94945.53;5136283;27;20244;-69
2022/12/05 09:00:40;;;;;;;1999.90;999.90;;;;;;;3.92;100.00;94921.69;5135130;27;20199;-70
2022/12/05 09:03:07;;;;;;;1999.90;999.90;;;;;;;3.94;100.00;94922.13;5134973;27;20172;-70
2022/12/05 09:05:33;;;;;;;1999.90;999.90;;;;;;;3.96;100.00;94927.94;5134928;27;20289;-70
2022/12/05 09:07:58;;;;;;;1999.90;999.90;;;;;;;3.93;100.00;94918.63;5134899;27;20191;-69
2022/12/05 09:10:24;;;;;;;1999.90;999.90;;;;;;;3.99;100.00;94916.34;5134754;27;20202;-69
2022/12/05 09:12:50;;;;;;;1999.90;999.90;;;;;;;4.02;100.00;94916.41;5135079;27;20175;-66
2022/12/05 09:15:16;;;;;;;1999.90;999.90;;;;;;;4.04;100.00;94905.22;5134663;27;20243;-61
2022/12/05 09:17:42;;;;;;;1999.90;999.90;;;;;;;4.05;100.00;94904.06;5134820;27;20258;-67
2022/12/05 09:20:08;;;;;;;1999.90;999.90;;;;;;;4.08;100.00;94898.69;5135359;27;20266;-66
2022/12/05 09:22:33;;;;;;;1999.90;999.90;;;;;;;4.12;100.00;94898.72;5134531;27;20209;-66
2022/12/05 09:25:02;;;;;;;1999.90;999.90;;;;;;;4.11;100.00;94908.75;5134612;27;20207;-67
2022/12/05 09:27:28;;;;;;;1999.90;999.90;;;;;;;3.96;100.00;94909.03;5134806;27;20171;-67
2022/12/05 09:29:53;;;;;;;1999.90;999.90;;;;;;;4.01;100.00;94908.69;5134672;27;20176;-67
2022/12/05 09:32:19;;;;;;;1999.90;999.90;;;;;;;4.07;100.00;94913.34;5134127;27;20267;-60
2022/12/05 09:34:44;;;;;;;1999.90;999.90;;;;;;;4.14;100.00;94909.94;5135130;27;20179;-60
2022/12/05 09:37:10;;;;;;;1999.90;999.90;;;;;;;4.21;100.00;94923.50;5134772;27;20179;-59
2022/12/05 09:39:35;;;;;;;1999.90;999.90;;;;;;;4.30;100.00;94922.03;5134464;27;20175;-59
2022/12/05 09:42:28;;;;;;;1999.90;999.90;;;;;;;4.37;100.00;94921.31;5134391;27;20268;-60
2022/12/05 09:45:09;;;;;;;1999.90;999.90;;;;;;;4.47;100.00;94926.78;5134731;27;20191;-60
2022/12/05 09:47:43;;;;;;;1999.90;999.90;;;;;;;4.57;100.00;94936.13;5134668;28;20169;-60
2022/12/05 09:50:27;;;;;;;1999.90;999.90;;;;;;;4.64;100.00;94947.00;5134162;27;20174;-67
2022/12/05 09:53:17;;;;;;;1999.90;999.90;;;;;;;4.63;100.00;94964.38;5135023;27;20168;-62
2022/12/05 09:55:42;;;;;;;1999.90;999.90;;;;;;;4.70;100.00;94969.84;5134258;28;20270;-62
2022/12/05 09:58:21;;;;;;;1999.90;999.90;;;;;;;4.69;100.00;94977.16;5134194;28;20263;-62
2022/12/05 10:00:50;;;;;;;1999.90;999.90;;;;;;;4.74;100.00;94973.34;5134432;27;20194;-62
2022/12/05 10:03:37;;;;;;;1999.90;999.90;;;;;;;4.78;100.00;94974.13;5134226;27;20173;-62
2022/12/05 10:06:25;;;;;;;1999.90;999.90;;;;;;;4.81;100.00;94990.38;5134636;28;20164;-62
2022/12/05 10:09:18;;;;;;;1999.90;999.90;;;;;;;4.82;100.00;95001.97;5134812;28;20163;-62
2022/12/05 10:12:11;;;;;;;1999.90;999.90;;;;;;;4.79;100.00;94991.91;5134983;28;20245;-67
2022/12/05 10:14:46;;;;;;;1999.90;999.90;;;;;;;4.84;100.00;94996.97;5134414;28;20175;-67
2022/12/05 10:17:40;;;;;;;1999.90;999.90;;;;;;;4.89;100.00;94996.63;5134086;28;20179;-67
2022/12/05 10:20:23;;;;;;;1999.90;999.90;;;;;;;4.88;100.00;94993.13;5127860;28;20248;-67
2022/12/05 10:23:01;;;;;;;1999.90;999.90;;;;;;;4.93;100.00;94981.19;5134588;28;20528;-67
2022/12/05 10:25:30;;;;;;;1999.90;999.90;;;;;;;4.95;100.00;94985.06;5134980;27;20203;-67
2022/12/05 10:28:11;;;;;;;1999.90;999.90;;;;;;;5.00;100.00;94978.53;5134201;27;20531;-61
2022/12/05 10:30:40;;;;;;;1999.90;999.90;;;;;;;5.04;100.00;94971.19;5133970;28;20175;-59
2022/12/05 10:33:20;;;;;;;1999.90;999.90;;;;;;;5.03;100.00;94975.06;5134151;28;20168;-59
2022/12/05 10:35:45;;;;;;;1999.90;999.90;;;;;;;5.04;100.00;94984.72;5134402;27;20175;-60
2022/12/05 10:38:27;;;;;;;1999.90;999.90;;;;;;;5.07;100.00;94975.88;5133966;27;20178;-60
2022/12/05 10:40:57;;;;;;;1999.90;999.90;;;;;;;5.13;100.00;94977.81;5134062;27;20224;-60
2022/12/05 10:43:31;;;;;;;1999.90;999.90;;;;;;;5.16;100.00;94979.78;5134093;27;20186;-59
2022/12/05 10:45:58;;;;;;;1999.90;999.90;;;;;;;5.22;100.00;94988.31;5138275;27;20166;-60
2022/12/05 10:48:24;;;;;;;1999.90;999.90;;;;;;;5.25;100.00;94992.97;5137834;27;20172;-61
2022/12/05 10:50:52;;;;;;;1999.90;999.90;;;;;;;5.20;100.00;94990.59;5138296;27;20164;-61
2022/12/05 10:53:40;;;;;;;1999.90;999.90;;;;;;;5.23;100.00;95000.69;5137684;27;20202;-61
2022/12/05 10:56:45;;;;;;;1999.90;999.90;;;;;;;5.31;100.00;94999.56;5137108;27;20175;-61
2022/12/05 10:59:17;;;;;;;1999.90;999.90;;;;;;;5.41;100.00;94999.63;5136604;27;20265;-61
2022/12/05 11:01:49;;;;;;;1999.90;999.90;;;;;;;5.54;100.00;94997.38;5137499;27;20196;-61
2022/12/05 11:04:31;;;;;;;1999.90;999.90;;;;;;;5.66;100.00;95007.84;5137559;27;20268;-68
2022/12/05 11:06:59;;;;;;;1999.90;999.90;;;;;;;5.79;100.00;95012.53;5138019;27;20213;-63
2022/12/05 11:09:28;;;;;;;1999.90;999.90;;;;;;;5.90;100.00;95010.69;5137150;27;20165;-63
2022/12/05 11:12:18;;;;;;;1999.90;999.90;;;;;;;5.98;100.00;95036.63;5136915;27;20172;-63
2022/12/05 11:15:00;;;;;;;1999.90;999.90;;;;;;;6.02;100.00;95052.94;5137331;27;20614;-63
2022/12/05 11:17:34;;;;;;;1999.90;999.90;;;;;;;6.03;100.00;95076.94;5137377;27;20642;-63